Time;durP1;ratioP1;P1;durP2;ratioP2;P2;SDS_P1;SDS_P2;PMS_P1;PMS_P2;Temp;Humidity;BMP_temperature;BMP_pressure;BME280_temperature;BME280_humidity;BME280_pressure;Samples;Min_cycle;Max_cycle;Signal;HPM_P1;HPM_P2
2022/11/26 00:00:46;;;;;;;;;;;6.00;99.90;;;5.28;100.00;98166.53;5067373;28;19923;-60
2022/11/26 00:03:12;;;;;;;;;;;6.00;99.90;;;5.28;100.00;98165.66;5073135;28;19912;-59
2022/11/26 00:05:39;;;;;;;;;;;6.00;99.90;;;5.29;100.00;98173.50;5069669;28;19923;-60
2022/11/26 00:08:14;;;;;;;;;;;6.00;99.90;;;5.28;100.00;98165.66;5064170;28;20100;-60
2022/11/26 00:10:40;;;;;;;;;;;6.10;99.90;;;5.32;100.00;98162.16;5061026;28;19925;-61
2022/11/26 00:13:14;;;;;;;;;;;6.00;99.90;;;5.24;100.00;98159.56;5068931;28;19959;-59
2022/11/26 00:15:40;;;;;;;;;;;6.00;99.90;;;5.30;100.00;98184.84;5067118;28;19924;-60
2022/11/26 00:18:05;;;;;;;;;;;6.00;99.90;;;5.26;100.00;98183.97;5073266;28;19912;-62
2022/11/26 00:20:31;;;;;;;;;;;5.90;99.90;;;5.15;100.00;98181.41;5065399;28;19912;-60
2022/11/26 00:23:00;;;;;;;;;;;5.90;99.90;;;5.12;100.00;98188.38;5066850;28;20377;-59
2022/11/26 00:25:37;;;;;;;;;;;5.80;99.90;;;5.06;100.00;98180.53;5046204;28;19916;-61
2022/11/26 00:28:19;;;;;;;;;;;5.80;99.90;;;4.98;100.00;98191.00;5062187;28;20065;-59
2022/11/26 00:30:45;;;;;;;;;;;5.70;99.90;;;4.92;100.00;98186.69;5039224;28;19916;-60
2022/11/26 00:33:11;;;;;;;;;;;5.70;99.90;;;4.88;100.00;98190.19;5060631;28;20404;-61
2022/11/26 00:35:36;;;;;;;;;;;5.60;99.90;;;4.89;100.00;98194.50;5054746;28;19955;-60
2022/11/26 00:38:02;;;;;;;;;;;5.60;99.90;;;4.95;100.00;98196.25;5037091;28;19920;-60
2022/11/26 00:40:31;;;;;;;;;;;5.70;99.90;;;4.99;100.00;98192.78;5041552;28;19912;-61
2022/11/26 00:42:57;;;;;;;;;;;5.70;99.90;;;5.06;100.00;98197.13;5064494;28;20567;-60
2022/11/26 00:45:25;;;;;;;;;;;5.80;99.90;;;5.18;100.00;98205.78;5064815;28;19915;-60
2022/11/26 00:47:51;;;;;;;;;;;5.90;99.90;;;5.26;100.00;98201.44;5053712;28;20102;-61
2022/11/26 00:50:19;;;;;;;;;;;6.00;99.90;;;5.34;100.00;98207.47;5049847;28;19924;-61
2022/11/26 00:52:46;;;;;;;;;;;6.00;99.90;;;5.42;100.00;98217.91;5039970;28;20284;-61
2022/11/26 00:55:18;;;;;;;;;;;6.10;99.90;;;5.51;100.00;98208.31;5038046;28;19920;-61
2022/11/26 00:57:44;;;;;;;;;;;6.20;99.90;;;5.55;100.00;98217.88;5035230;28;19928;-61
2022/11/26 01:00:19;;;;;;;;;;;6.30;99.90;;;5.59;100.00;98221.34;5069571;28;19924;-61
2022/11/26 01:02:44;;;;;;;;;;;6.30;99.90;;;5.69;100.00;98227.44;5056016;28;19990;-61
2022/11/26 01:05:10;;;;;;;;;;;6.40;99.90;;;5.77;100.00;98228.25;5053356;28;20037;-59
2022/11/26 01:07:36;;;;;;;;;;;6.40;99.90;;;5.82;100.00;98234.34;5056376;28;20300;-61
2022/11/26 01:10:02;;;;;;;;;;;6.50;99.90;;;5.85;100.00;98236.06;5039517;28;20011;-60
2022/11/26 01:12:27;;;;;;;;;;;6.60;99.90;;;5.89;100.00;98248.28;5062788;28;20193;-61
2022/11/26 01:14:53;;;;;;;;;;;6.60;99.90;;;5.93;100.00;98244.75;5066205;28;20284;-60
2022/11/26 01:17:18;;;;;;;;;;;6.60;99.90;;;5.97;100.00;98243.03;5065387;28;19923;-61
2022/11/26 01:19:44;;;;;;;;;;;6.70;99.90;;;5.98;100.00;98253.50;5067886;28;19972;-61
2022/11/26 01:22:21;;;;;;;;;;;6.70;99.90;;;6.02;100.00;98255.22;5058936;28;19920;-61
2022/11/26 01:24:47;;;;;;;;;;;6.70;99.90;;;6.07;100.00;98257.84;5065100;28;19918;-60
2022/11/26 01:27:13;;;;;;;;;;;6.80;99.90;;;6.08;100.00;98260.44;5055111;28;19912;-61
2022/11/26 01:29:38;;;;;;;;;;;6.80;99.90;;;6.07;100.00;98263.06;5061302;28;20417;-61
2022/11/26 01:32:04;;;;;;;;;;;6.80;99.90;;;6.04;100.00;98261.31;5057181;28;20399;-61
2022/11/26 01:34:30;;;;;;;;;;;6.80;99.90;;;6.06;100.00;98266.56;5063768;28;19959;-61
2022/11/26 01:36:55;;;;;;;;;;;6.80;99.90;;;5.89;100.00;98236.06;5060992;28;19920;-61
2022/11/26 01:39:22;;;;;;;;;;;6.80;99.90;;;6.08;100.00;98270.91;5056758;28;19948;-61
2022/11/26 01:42:09;;;;;;;;;;;6.80;99.90;;;6.07;100.00;98270.94;5057316;28;19942;-61
2022/11/26 01:44:36;;;;;;;;;;;6.80;99.90;;;6.05;100.00;98283.16;5057211;28;19999;-61
2022/11/26 01:47:26;;;;;;;;;;;6.80;99.90;;;6.04;100.00;98291.88;5058272;28;19920;-61
2022/11/26 01:50:29;;;;;;;;;;;6.80;99.90;;;6.05;100.00;98294.50;5059988;28;19921;-61
2022/11/26 01:52:58;;;;;;;;;;;6.80;99.90;;;6.06;100.00;98290.97;5060908;28;19965;-61
2022/11/26 01:55:27;;;;;;;;;;;6.80;99.90;;;6.11;100.00;98301.44;5064929;28;19959;-61
2022/11/26 01:57:52;;;;;;;;;;;6.80;99.90;;;6.12;100.00;98295.34;5041786;28;19920;-61
2022/11/26 02:00:18;;;;;;;;;;;6.80;99.90;;;6.15;100.00;98291.81;5046649;28;20372;-61
2022/11/26 02:02:44;;;;;;;;;;;6.90;99.90;;;6.15;100.00;98300.56;5064633;28;19920;-59
2022/11/26 02:05:16;;;;;;;;;;;6.90;99.90;;;6.18;100.00;98304.91;5046653;28;19927;-59
2022/11/26 02:07:43;;;;;;;;;;;6.90;99.90;;;6.20;100.00;98292.69;5062231;28;19919;-61
2022/11/26 02:10:09;;;;;;;;;;;6.90;99.90;;;6.19;100.00;98299.69;5047144;28;19924;-59
2022/11/26 02:12:35;;;;;;;;;;;6.90;99.90;;;6.16;100.00;98297.06;5060582;28;20133;-61
2022/11/26 02:15:01;;;;;;;;;;;6.90;99.90;;;6.15;100.00;98307.53;5065121;28;19908;-61
2022/11/26 02:17:38;;;;;;;;;;;6.80;99.90;;;6.14;100.00;98306.69;5047410;28;19918;-61
2022/11/26 02:20:22;;;;;;;;;;;6.90;99.90;;;6.15;100.00;98307.53;5044707;28;19923;-61
2022/11/26 02:22:53;;;;;;;;;;;6.80;99.90;;;6.05;100.00;98285.78;5061043;28;20380;-61
2022/11/26 02:25:29;;;;;;;;;;;6.90;99.90;;;6.17;100.00;98311.03;5064298;28;19916;-61
2022/11/26 02:27:55;;;;;;;;;;;6.80;99.90;;;6.13;100.00;98320.66;5061918;28;19916;-60
2022/11/26 02:30:20;;;;;;;;;;;6.90;99.90;;;6.09;100.00;98322.41;5060651;28;19964;-61
2022/11/26 02:32:50;;;;;;;;;;;6.80;99.90;;;6.03;100.00;98322.44;5066160;28;19916;-61
2022/11/26 02:35:23;;;;;;;;;;;6.70;99.90;;;5.93;100.00;98318.06;5052393;28;20409;-61
2022/11/26 02:37:54;;;;;;;;;;;6.60;99.90;;;5.90;100.00;98332.06;5044496;28;19920;-61
2022/11/26 02:40:19;;;;;;;;;;;6.60;99.90;;;5.89;100.00;98327.69;5044573;28;19920;-61
2022/11/26 02:42:45;;;;;;;;;;;6.60;99.90;;;5.89;100.00;98334.69;5069237;28;19977;-61
2022/11/26 02:45:14;;;;;;;;;;;6.60;99.90;;;5.87;100.00;98339.06;5060654;28;20016;-59
2022/11/26 02:47:42;;;;;;;;;;;6.60;99.90;;;5.83;100.00;98346.06;5059190;28;20056;-59
2022/11/26 02:50:12;;;;;;;;;;;6.50;99.90;;;5.82;100.00;98349.53;5065552;28;20294;-61
2022/11/26 02:52:40;;;;;;;;;;;6.50;99.90;;;5.78;100.00;98355.66;5061075;28;20278;-61
2022/11/26 02:55:07;;;;;;;;;;;6.50;99.90;;;5.72;100.00;98355.66;5039434;28;20002;-59
2022/11/26 02:57:39;;;;;;;;;;;6.40;99.90;;;5.70;100.00;98358.28;5040937;28;19916;-62
2022/11/26 03:00:05;;;;;;;;;;;6.40;99.90;;;5.71;100.00;98369.63;5046275;28;19997;-64
2022/11/26 03:02:34;;;;;;;;;;;6.40;99.90;;;5.72;100.00;98366.13;5064255;28;19912;-63
2022/11/26 03:05:00;;;;;;;;;;;6.40;99.90;;;5.69;100.00;98372.25;5042607;28;19916;-64
2022/11/26 03:07:28;;;;;;;;;;;6.40;99.90;;;5.75;100.00;98373.97;5038510;28;20403;-62
2022/11/26 03:09:56;;;;;;;;;;;6.40;99.90;;;5.74;100.00;98370.50;5037488;28;19947;-63
2022/11/26 03:12:22;;;;;;;;;;;6.50;99.90;;;5.83;100.00;98380.09;5052322;28;20275;-63
2022/11/26 03:14:48;;;;;;;;;;;6.50;99.90;;;5.85;100.00;98383.56;5041549;28;20267;-63
2022/11/26 03:17:14;;;;;;;;;;;6.50;99.90;;;5.72;100.00;98361.78;5064343;28;19919;-61
2022/11/26 03:19:39;;;;;;;;;;;6.60;99.90;;;5.85;100.00;98385.28;5059955;28;20571;-62
2022/11/26 03:22:05;;;;;;;;;;;6.50;99.90;;;5.80;100.00;98373.97;5061677;28;19935;-62
2022/11/26 03:24:31;;;;;;;;;;;6.50;99.90;;;5.81;100.00;98387.03;5060852;28;20587;-62
2022/11/26 03:26:57;;;;;;;;;;;6.50;99.90;;;5.77;100.00;98380.06;5061371;28;20265;-63
2022/11/26 03:29:23;;;;;;;;;;;6.50;99.90;;;5.78;100.00;98387.06;5064435;28;19959;-60
2022/11/26 03:31:48;;;;;;;;;;;6.50;99.90;;;5.79;100.00;98380.94;5064623;28;20043;-60
2022/11/26 03:34:14;;;;;;;;;;;6.50;99.90;;;5.78;100.00;98381.84;5060654;28;19912;-60
2022/11/26 03:36:39;;;;;;;;;;;6.50;99.90;;;5.79;100.00;98382.69;5066410;28;19921;-60
2022/11/26 03:39:05;;;;;;;;;;;6.50;99.90;;;5.74;100.00;98386.22;5077537;22;19971;-39
2022/11/26 03:41:31;;;;;;;;;;;6.40;99.90;;;5.75;100.00;98392.31;5078268;28;19961;-40
2022/11/26 03:43:56;;;;;;;;;;;6.40;99.90;;;5.71;100.00;98391.44;5074903;28;19926;-40
2022/11/26 03:46:22;;;;;;;;;;;6.40;99.90;;;5.67;100.00;98389.72;5076536;28;20442;-40
2022/11/26 03:48:48;;;;;;;;;;;6.40;99.90;;;5.68;100.00;98401.03;5071471;28;19916;-40
2022/11/26 03:51:13;;;;;;;;;;;6.30;99.90;;;5.62;100.00;98406.28;5069413;28;19924;-40
2022/11/26 03:53:39;;;;;;;;;;;6.30;99.90;;;5.56;100.00;98399.28;5069963;28;19920;-40
2022/11/26 03:56:04;;;;;;;;;;;6.20;99.90;;;5.51;100.00;98406.31;5067659;28;20006;-40
2022/11/26 03:58:30;;;;;;;;;;;6.20;99.90;;;5.50;100.00;98407.16;5071957;28;20392;-39
2022/11/26 04:00:56;;;;;;;;;;;6.20;99.90;;;5.50;100.00;98394.94;5070834;28;20242;-40
2022/11/26 04:03:21;;;;;;;;;;;6.20;99.90;;;5.37;100.00;98385.38;5067468;28;19959;-40
2022/11/26 04:05:47;;;;;;;;;;;6.20;99.90;;;5.49;100.00;98405.41;5071784;28;20350;-40
2022/11/26 04:08:12;;;;;;;;;;;6.10;99.90;;;5.47;100.00;98401.91;5068527;28;19912;-40
2022/11/26 04:10:39;;;;;;;;;;;6.10;99.90;;;5.40;100.00;98401.06;5070915;28;19982;-40
2022/11/26 04:13:05;;;;;;;;;;;6.10;99.90;;;5.35;100.00;98405.44;5071358;28;20426;-40
2022/11/26 04:15:30;;;;;;;;;;;6.00;99.90;;;5.32;100.00;98408.91;5063053;28;19912;-40
2022/11/26 04:17:56;;;;;;;;;;;6.00;99.90;;;5.36;100.00;98415.00;5067031;28;19965;-40
2022/11/26 04:20:22;;;;;;;;;;;6.10;99.90;;;5.37;100.00;98395.84;5072768;28;19920;-40
2022/11/26 04:22:47;;;;;;;;;;;6.10;99.90;;;5.45;100.00;98404.53;5072056;28;20446;-40
2022/11/26 04:25:13;;;;;;;;;;;6.10;99.90;;;5.36;100.00;98381.00;5066239;28;20322;-40
2022/11/26 04:27:39;;;;;;;;;;;6.20;99.90;;;5.54;100.00;98403.66;5064526;28;19912;-40
2022/11/26 04:30:05;;;;;;;;;;;6.20;99.90;;;5.52;100.00;98398.44;5070878;28;19927;-40
2022/11/26 04:32:31;;;;;;;;;;;6.30;99.90;;;5.57;100.00;98408.03;5066691;28;19912;-40
2022/11/26 04:34:57;;;;;;;;;;;6.30;99.90;;;5.57;100.00;98405.44;5068382;28;19920;-40
2022/11/26 04:37:22;;;;;;;;;;;6.30;99.90;;;5.60;100.00;98402.78;5072555;28;20319;-40
2022/11/26 04:39:48;;;;;;;;;;;6.30;99.90;;;5.59;100.00;98407.16;5068131;28;19969;-40
2022/11/26 04:42:13;;;;;;;;;;;6.30;99.90;;;5.50;100.00;98394.94;5065331;28;20173;-40
2022/11/26 04:44:39;;;;;;;;;;;6.20;99.90;;;5.53;100.00;98415.88;5068826;28;20014;-40
2022/11/26 04:47:05;;;;;;;;;;;6.20;99.90;;;5.50;100.00;98413.25;5070848;28;19918;-40
2022/11/26 04:49:30;;;;;;;;;;;6.20;99.90;;;5.46;100.00;98415.91;5052151;28;19935;-40
2022/11/26 04:51:56;;;;;;;;;;;6.10;99.90;;;5.37;100.00;98406.31;5070249;28;20455;-40
2022/11/26 04:54:21;;;;;;;;;;;6.00;99.90;;;5.26;100.00;98406.31;5068300;28;20134;-40
2022/11/26 04:56:48;;;;;;;;;;;6.00;99.90;;;5.02;100.00;98387.97;5066815;28;19920;-40
2022/11/26 04:59:14;;;;;;;;;;;5.80;99.90;;;4.97;100.00;98404.53;5066865;28;20225;-41
2022/11/26 05:01:40;;;;;;;;;;;5.70;99.90;;;4.91;100.00;98416.72;5067959;28;19988;-40
2022/11/26 05:04:06;;;;;;;;;;;5.60;99.90;;;4.80;100.00;98416.69;5066641;28;20467;-41
2022/11/26 05:06:31;;;;;;;;;;;5.50;99.90;;;4.69;100.00;98421.03;5063509;28;20199;-40
2022/11/26 05:08:58;;;;;;;;;;;5.40;99.90;;;4.55;100.00;98424.44;5073385;28;20287;-40
2022/11/26 05:11:24;;;;;;;;;;;5.30;99.90;;;4.50;100.00;98427.91;5067081;28;19924;-40
2022/11/26 05:13:49;;;;;;;;;;;5.20;99.90;;;4.50;100.00;98430.53;5061485;28;19916;-40
2022/11/26 05:16:15;;;;;;;;;;;5.20;99.90;;;4.43;100.00;98420.91;5063653;28;19943;-40
2022/11/26 05:18:40;;;;;;;;;;;5.10;99.90;;;4.35;100.00;98421.75;5066373;28;19962;-39
2022/11/26 05:21:06;;;;;;;;;;;5.10;99.90;;;4.29;100.00;98424.34;5066902;28;20494;-40
2022/11/26 05:23:32;;;;;;;;;;;5.00;99.90;;;4.24;100.00;98425.22;5070956;28;20497;-40
2022/11/26 05:25:58;;;;;;;;;;;5.00;99.90;;;4.13;100.00;98415.56;5064996;28;20418;-40
2022/11/26 05:28:24;;;;;;;;;;;4.90;99.90;;;4.13;100.00;98427.78;5062827;28;19916;-40
2022/11/26 05:30:56;;;;;;;;;;;4.90;99.90;;;4.01;100.00;98429.41;5065029;28;20121;-40
2022/11/26 05:33:22;;;;;;;;;;;4.80;99.90;;;4.00;100.00;98430.31;5063023;28;19943;-40
2022/11/26 05:35:47;;;;;;;;;;;4.70;99.90;;;3.81;100.00;98412.78;5066109;28;20007;-40
2022/11/26 05:38:13;;;;;;;;;;;4.70;99.90;;;3.91;100.00;98440.69;5063130;28;20276;-40
2022/11/26 05:40:38;;;;;;;;;;;4.70;99.90;;;3.86;100.00;98433.66;5063785;28;19967;-40
2022/11/26 05:43:04;;;;;;;;;;;4.60;99.90;;;3.81;100.00;98444.09;5063179;28;20551;-40
2022/11/26 05:45:30;;;;;;;;;;;4.60;99.90;;;3.76;100.00;98441.44;5061080;28;19955;-40
2022/11/26 05:47:55;;;;;;;;;;;4.50;99.90;;;3.71;100.00;98447.50;5072326;28;19920;-40
2022/11/26 05:50:21;;;;;;;;;;;4.50;99.90;;;3.62;100.00;98445.69;5070922;28;19920;-40
2022/11/26 05:52:46;;;;;;;;;;;4.40;99.90;;;3.58;100.00;98454.38;5069031;28;20499;-40
2022/11/26 05:55:12;;;;;;;;;;;4.40;99.90;;;3.43;100.00;98431.66;5068255;28;20019;-40
2022/11/26 05:57:38;;;;;;;;;;;4.40;99.90;;;3.57;100.00;98461.31;5071538;28;19973;-40
2022/11/26 06:00:05;;;;;;;;;;;4.40;99.90;;;3.54;100.00;98461.28;5049696;28;20023;-40
2022/11/26 06:02:30;;;;;;;;;;;4.40;99.90;;;3.51;100.00;98466.47;5053191;28;19920;-40
2022/11/26 06:04:56;;;;;;;;;;;4.30;99.90;;;3.49;100.00;98459.50;5068841;28;19923;-40
2022/11/26 06:07:22;;;;;;;;;;;4.30;99.90;;;3.48;100.00;98469.03;5068575;28;19919;-40
2022/11/26 06:09:47;;;;;;;;;;;4.20;99.90;;;3.46;100.00;98478.59;5068969;28;19916;-40
2022/11/26 06:12:13;;;;;;;;;;;4.20;99.90;;;3.41;100.00;98472.47;5069626;28;19917;-40
2022/11/26 06:14:38;;;;;;;;;;;4.20;99.90;;;3.37;100.00;98482.00;5068856;28;20293;-40
2022/11/26 06:17:04;;;;;;;;;;;4.10;99.90;;;3.34;100.00;98475.88;5064229;28;20415;-40
2022/11/26 06:19:29;;;;;;;;;;;4.10;99.90;;;3.29;100.00;98475.84;5070733;28;19920;-39
2022/11/26 06:21:55;;;;;;;;;;;4.10;99.90;;;3.26;100.00;98481.03;5067217;28;20006;-40
2022/11/26 06:24:21;;;;;;;;;;;4.00;99.90;;;3.18;100.00;98470.53;5071546;28;19912;-40
2022/11/26 06:26:46;;;;;;;;;;;3.90;99.90;;;3.19;100.00;98484.44;5061679;28;20358;-40
2022/11/26 06:29:12;;;;;;;;;;;3.90;99.90;;;3.15;100.00;98474.84;5064132;28;19920;-39
2022/11/26 06:31:38;;;;;;;;;;;3.90;99.90;;;3.12;100.00;98491.31;5050974;28;20399;-41
2022/11/26 06:34:03;;;;;;;;;;;3.90;99.90;;;3.11;100.00;98484.38;5070750;28;19995;-42
2022/11/26 06:36:29;;;;;;;;;;;3.90;99.90;;;3.08;100.00;98486.94;5069103;28;20007;-42
2022/11/26 06:38:55;;;;;;;;;;;3.80;99.90;;;2.87;100.00;98464.13;5066663;28;20402;-41
2022/11/26 06:41:20;;;;;;;;;;;3.80;99.90;;;3.01;100.00;98490.34;5070376;28;19919;-42
2022/11/26 06:43:46;;;;;;;;;;;3.80;99.90;;;2.99;100.00;98494.66;5066840;28;19966;-42
2022/11/26 06:46:12;;;;;;;;;;;3.70;99.90;;;2.95;100.00;98485.94;5069637;28;20071;-42
2022/11/26 06:48:38;;;;;;;;;;;3.70;99.90;;;2.98;100.00;98501.63;5069710;28;20265;-42
2022/11/26 06:51:05;;;;;;;;;;;3.70;99.90;;;2.97;100.00;98512.03;5069708;28;20375;-42
2022/11/26 06:53:31;;;;;;;;;;;3.70;99.90;;;2.92;100.00;98505.88;5048752;28;20473;-42
2022/11/26 06:56:04;;;;;;;;;;;3.70;99.90;;;2.94;100.00;98515.44;5065888;28;19916;-42
2022/11/26 06:58:31;;;;;;;;;;;3.70;99.90;;;2.96;100.00;98518.97;5072403;28;19916;-42
2022/11/26 07:00:56;;;;;;;;;;;3.70;99.90;;;2.98;100.00;98521.56;5050178;28;20319;-42
2022/11/26 07:03:22;;;;;;;;;;;3.70;99.90;;;2.92;100.00;98516.31;5073196;28;19916;-42
2022/11/26 07:05:48;;;;;;;;;;;3.70;99.90;;;2.99;100.00;98532.00;5072011;28;20272;-43
2022/11/26 07:08:13;;;;;;;;;;;3.70;99.90;;;3.01;100.00;98539.84;5070675;28;19922;-42
2022/11/26 07:10:39;;;;;;;;;;;3.80;99.90;;;3.00;100.00;98541.59;5071381;28;19923;-43
2022/11/26 07:13:05;;;;;;;;;;;3.80;99.90;;;3.01;100.00;98547.66;5073348;28;19919;-42
2022/11/26 07:15:31;;;;;;;;;;;3.80;99.90;;;3.05;100.00;98545.13;5071906;28;19908;-42
2022/11/26 07:17:57;;;;;;;;;;;3.80;99.90;;;3.07;100.00;98550.38;5073002;28;20006;-42
2022/11/26 07:20:23;;;;;;;;;;;3.80;99.90;;;3.07;100.00;98552.97;5059221;28;19916;-42
2022/11/26 07:22:49;;;;;;;;;;;3.80;99.90;;;3.13;100.00;98560.84;5073129;28;20219;-41
2022/11/26 07:25:16;;;;;;;;;;;3.90;99.90;;;3.20;100.00;98561.81;5071933;28;20462;-41
2022/11/26 07:27:41;;;;;;;;;;;4.00;99.90;;;3.28;100.00;98567.09;5073199;28;19938;-41
2022/11/26 07:30:08;;;;;;;;;;;4.00;99.90;;;3.39;100.00;98566.38;5073748;28;19943;-41
2022/11/26 07:32:33;;;;;;;;;;;4.10;99.90;;;3.41;100.00;98568.97;5081221;28;19913;-41
2022/11/26 07:35:00;;;;;;;;;;;4.20;99.90;;;3.48;100.00;98578.59;5074347;28;19961;-42
2022/11/26 07:37:26;;;;;;;;;;;4.30;99.90;;;3.52;100.00;98576.94;5074120;28;20356;-41
2022/11/26 07:39:52;;;;;;;;;;;4.30;99.90;;;3.65;100.00;98590.97;5073796;28;19973;-41
2022/11/26 07:42:17;;;;;;;;;;;4.40;99.90;;;3.76;100.00;98592.78;5072619;28;20229;-41
2022/11/26 07:44:43;;;;;;;;;;;4.50;99.90;;;4.01;100.00;98595.63;5074131;28;20377;-41
2022/11/26 07:47:08;;;;;;;;;;;4.70;99.90;;;4.26;100.00;98594.09;5071781;28;20032;-41
2022/11/26 07:49:34;;;;;;;;;;;5.00;99.90;;;4.50;100.00;98602.94;5069915;28;19965;-41
2022/11/26 07:51:59;;;;;;;;;;;5.20;99.90;;;4.73;100.00;98600.47;5070550;28;19919;-41
2022/11/26 07:54:25;;;;;;;;;;;5.40;99.90;;;4.87;100.00;98605.78;5074222;28;20277;-41
2022/11/26 07:56:51;;;;;;;;;;;5.50;99.90;;;4.83;100.00;98581.38;5075480;28;19912;-41
2022/11/26 07:59:16;;;;;;;;;;;5.60;99.90;;;5.01;100.00;98605.84;5070766;28;19971;-41
2022/11/26 08:01:42;;;;;;;;;;;5.60;99.90;;;5.03;100.00;98602.38;5073310;28;19912;-42
2022/11/26 08:04:07;;;;;;;;;;;5.70;99.90;;;5.10;100.00;98614.63;5074422;28;20013;-41
2022/11/26 08:06:33;;;;;;;;;;;5.80;99.90;;;5.15;100.00;98609.38;5076460;28;19958;-41
2022/11/26 08:09:01;;;;;;;;;;;5.80;99.90;;;5.15;100.00;98610.28;5073394;28;19938;-41
2022/11/26 08:11:28;;;;;;;;;;;5.90;99.90;;;5.21;100.00;98613.78;5073941;28;19990;-40
2022/11/26 08:14:01;;;;;;;;;;;5.90;99.90;;;5.21;100.00;98612.03;5070542;28;20178;-42
2022/11/26 08:16:27;;;;;;;;;;;5.90;99.90;;;5.33;100.00;98614.72;5056896;28;20291;-41
2022/11/26 08:18:57;;;;;;;;;;;6.00;99.90;;;5.45;100.00;98621.69;5072781;28;20050;-41
2022/11/26 08:21:23;;;;;;;;;;;6.10;99.90;;;5.53;100.00;98622.59;5075749;28;19912;-41
2022/11/26 08:23:48;;;;;;;;;;;6.20;99.90;;;5.59;100.00;98626.13;5074259;28;20255;-41
2022/11/26 08:26:14;;;;;;;;;;;6.30;99.90;;;5.47;100.00;98596.44;5055057;28;20058;-41
2022/11/26 08:28:44;;;;;;;;;;;6.30;99.90;;;5.45;100.00;98577.22;5074537;28;19923;-41
2022/11/26 08:31:10;;;;;;;;;;;6.30;99.90;;;5.66;100.00;98617.41;5070202;28;19917;-41
2022/11/26 08:33:36;;;;;;;;;;;6.30;99.90;;;5.68;100.00;98615.66;5074115;28;19920;-41
2022/11/26 08:36:02;;;;;;;;;;;6.30;99.90;;;5.69;100.00;98620.03;5071229;28;20414;-41
2022/11/26 08:38:29;;;;;;;;;;;6.40;99.90;;;5.72;100.00;98627.88;5074359;28;19947;-41
2022/11/26 08:40:58;;;;;;;;;;;6.40;99.90;;;5.79;100.00;98640.13;5071274;28;19973;-41
2022/11/26 08:43:24;;;;;;;;;;;6.40;99.90;;;5.82;100.00;98632.28;5073062;28;19918;-41
2022/11/26 08:45:58;;;;;;;;;;;6.50;99.90;;;5.78;100.00;98635.75;5072118;28;19920;-41
2022/11/26 08:48:25;;;;;;;;;;;6.50;99.90;;;5.68;100.00;98639.22;5075886;28;19976;-41
2022/11/26 08:50:50;;;;;;;;;;;6.40;99.90;;;5.62;100.00;98641.84;5072663;28;19927;-41
2022/11/26 08:53:16;;;;;;;;;;;6.30;99.90;;;5.53;100.00;98634.84;5073661;28;19916;-41
2022/11/26 08:55:42;;;;;;;;;;;6.30;99.90;;;5.43;100.00;98641.75;5072174;28;20350;-41
2022/11/26 08:58:07;;;;;;;;;;;6.20;99.90;;;5.37;100.00;98649.59;5077546;28;19978;-41
2022/11/26 09:00:33;;;;;;;;;;;6.10;99.90;;;5.32;100.00;98643.47;5073842;28;20494;-41
2022/11/26 09:02:59;;;;;;;;;;;6.10;99.90;;;5.30;100.00;98642.59;5073515;28;20022;-41
2022/11/26 09:05:24;;;;;;;;;;;6.10;99.90;;;5.24;100.00;98622.53;5073275;28;19912;-41
2022/11/26 09:07:50;;;;;;;;;;;6.10;99.90;;;5.53;100.00;98646.16;5056197;28;19916;-41
2022/11/26 09:10:16;;;;;;;;;;;6.30;99.90;;;5.65;100.00;98644.44;5072053;28;20383;-41
2022/11/26 09:12:41;;;;;;;;;;;6.40;99.90;;;5.70;100.00;98640.09;5073694;28;19912;-41
2022/11/26 09:15:08;;;;;;;;;;;6.40;99.90;;;5.64;100.00;98624.41;5074973;28;19908;-41
2022/11/26 09:17:33;;;;;;;;;;;6.40;99.90;;;5.51;100.00;98624.34;5075551;28;19990;-41
2022/11/26 09:19:59;;;;;;;;;;;6.30;99.90;;;5.45;100.00;98629.56;5071605;28;20372;-41
2022/11/26 09:22:25;;;;;;;;;;;6.30;99.90;;;5.42;100.00;98624.34;5070365;28;20098;-41
2022/11/26 09:24:51;;;;;;;;;;;6.20;99.90;;;5.38;100.00;98619.06;5068382;28;19929;-41
2022/11/26 09:27:16;;;;;;;;;;;6.20;99.90;;;5.37;100.00;98630.44;5070131;28;20232;-41
2022/11/26 09:29:42;;;;;;;;;;;6.10;99.90;;;5.36;100.00;98629.53;5072681;28;20287;-41
2022/11/26 09:32:08;;;;;;;;;;;6.10;99.90;;;5.28;100.00;98626.03;5074570;28;19916;-41
2022/11/26 09:34:36;;;;;;;;;;;6.10;99.90;;;5.32;100.00;98638.25;5073759;28;19912;-41
2022/11/26 09:37:02;;;;;;;;;;;6.10;99.90;;;5.35;100.00;98641.75;5073318;28;19989;-41
2022/11/26 09:39:28;;;;;;;;;;;6.10;99.90;;;5.39;100.00;98642.63;5086152;22;20327;-61
2022/11/26 09:42:21;;;;;;;;;;;6.10;99.90;;;5.44;100.00;98647.88;5059683;28;19935;-60
2022/11/26 09:45:21;;;;;;;;;;;6.20;99.90;;;5.47;100.00;98653.13;5059211;28;20390;-61
2022/11/26 09:47:51;;;;;;;;;;;6.20;99.90;;;5.50;100.00;98659.22;5060424;28;19917;-62
2022/11/26 09:50:22;;;;;;;;;;;6.20;99.90;;;5.48;100.00;98649.63;5032491;28;19921;-63
2022/11/26 09:52:52;;;;;;;;;;;6.30;99.90;;;5.61;100.00;98655.78;5037314;28;20157;-62
2022/11/26 09:55:31;;;;;;;;;;;6.30;99.90;;;5.72;100.00;98656.69;5034990;28;19971;-63
2022/11/26 09:58:33;;;;;;;;;;;6.40;99.90;;;5.84;100.00;98650.59;5035344;28;19955;-63
2022/11/26 10:00:59;;;;;;;;;;;6.50;99.90;;;5.83;100.00;98651.47;5038415;28;19913;-63
2022/11/26 10:03:37;;;;;;;;;;;6.70;99.90;;;5.95;100.00;98642.78;5020463;28;20282;-63
2022/11/26 10:06:10;;;;;;;;;;;6.80;99.90;;;6.11;100.00;98644.56;5022211;28;19916;-63
2022/11/26 10:09:13;;;;;;;;;;;6.80;99.90;;;6.23;100.00;98646.34;5019532;28;20304;-63
2022/11/26 10:11:50;;;;;;;;;;;7.00;99.90;;;6.34;100.00;98641.97;5036135;28;19924;-63
2022/11/26 10:14:41;;;;;;;;;;;7.10;99.90;;;6.46;100.00;98643.69;5038175;28;19928;-64
2022/11/26 10:17:10;;;;;;;;;;;7.20;99.90;;;6.65;100.00;98642.78;5020125;28;20022;-63
2022/11/26 10:19:57;;;;;;;;;;;7.30;99.90;;;6.88;100.00;98647.13;5036778;28;19967;-63
2022/11/26 10:22:54;;;;;;;;;;;7.50;99.90;;;7.19;100.00;98647.91;5021160;28;19993;-63
2022/11/26 10:25:21;;;;;;;;;;;7.80;99.90;;;7.59;100.00;98644.25;5037039;28;19921;-63
2022/11/26 10:27:48;;;;;;;;;;;8.20;99.90;;;7.76;100.00;98652.91;5022199;28;19963;-63
2022/11/26 10:30:25;;;;;;;;;;;8.50;99.90;;;8.19;100.00;98650.00;5021969;28;19916;-63
2022/11/26 10:32:51;;;;;;;;;;;8.80;99.90;;;8.59;100.00;98644.44;5035286;28;19912;-63
2022/11/26 10:35:20;;;;;;;;;;;9.20;99.90;;;8.93;100.00;98641.50;5038701;28;19938;-63
2022/11/26 10:37:46;;;;;;;;;;;9.50;99.90;;;8.99;100.00;98637.94;5037171;28;19919;-63
2022/11/26 10:40:31;;;;;;;;;;;9.80;99.90;;;9.21;100.00;98648.22;5019330;28;19982;-63
2022/11/26 10:43:13;;;;;;;;;;;9.90;99.90;;;9.39;100.00;98644.50;5038084;28;20688;-63
2022/11/26 10:45:48;;;;;;;;;;;10.00;99.90;;;9.53;100.00;98645.22;5033850;28;20019;-63
2022/11/26 10:48:30;;;;;;;;;;;10.20;99.90;;;9.46;100.00;98643.53;5035624;28;19924;-62
2022/11/26 10:50:58;;;;;;;;;;;10.20;99.90;;;9.37;100.00;98649.78;5038535;28;19930;-64
2022/11/26 10:53:24;;;;;;;;;;;10.20;99.90;;;9.20;100.00;98642.06;5021134;28;19912;-64
2022/11/26 10:55:52;;;;;;;;;;;10.00;99.90;;;8.98;100.00;98644.09;5037098;28;19943;-63
2022/11/26 10:58:22;;;;;;;;;;;9.80;99.90;;;8.81;100.00;98641.63;5020297;28;19913;-63
2022/11/26 11:00:47;;;;;;;;;;;9.60;99.90;;;8.67;100.00;98646.13;5017977;28;19909;-64
2022/11/26 11:03:38;;;;;;;;;;;9.40;99.90;;;8.54;100.00;98637.50;5036745;28;19920;-63
2022/11/26 11:06:18;;;;;;;;;;;9.30;99.90;;;8.40;100.00;98635.84;5033843;28;20423;-63
2022/11/26 11:08:49;;;;;;;;;;;9.10;99.90;;;8.32;100.00;98631.50;5035941;28;20084;-63
2022/11/26 11:11:25;;;;;;;;;;;9.00;99.90;;;8.18;100.00;98635.13;5033146;28;20349;-63
2022/11/26 11:13:51;;;;;;;;;;;8.90;99.90;;;8.07;100.00;98626.44;5037268;28;19927;-63
2022/11/26 11:16:26;;;;;;;;;;;8.80;99.90;;;7.97;100.00;98637.91;5037246;28;19920;-63
2022/11/26 11:18:55;;;;;;;;;;;8.60;99.90;;;7.90;100.00;98625.72;5021363;28;19940;-63
2022/11/26 11:21:21;;;;;;;;;;;8.50;99.90;;;7.84;100.00;98622.22;5021139;28;19913;-63
2022/11/26 11:23:47;;;;;;;;;;;8.40;99.90;;;7.78;100.00;98627.50;5019093;28;19921;-63
2022/11/26 11:26:19;;;;;;;;;;;8.40;99.90;;;7.72;100.00;98631.94;5033786;28;19920;-63
2022/11/26 11:28:50;;;;;;;;;;;8.30;99.90;;;7.53;100.00;98616.28;5038127;28;19908;-64